sensor_id;sensor_type;location;lat;lon;timestamp;temperature;humidity
54518;DHT22;40423;53.176;6.002;2023-09-19T00:01:08;15.20;99.90
54518;DHT22;40423;53.176;6.002;2023-09-19T00:03:37;15.20;99.90
54518;DHT22;40423;53.176;6.002;2023-09-19T00:06:03;15.30;99.90
54518;DHT22;40423;53.176;6.002;2023-09-19T00:08:35;15.30;99.90
54518;DHT22;40423;53.176;6.002;2023-09-19T00:11:01;15.30;99.90
54518;DHT22;40423;53.176;6.002;2023-09-19T00:13:29;15.30;99.90
54518;DHT22;40423;53.176;6.002;2023-09-19T00:15:56;15.30;99.90
54518;DHT22;40423;53.176;6.002;2023-09-19T00:18:25;15.30;99.90
54518;DHT22;40423;53.176;6.002;2023-09-19T00:21:00;15.30;99.90
54518;DHT22;40423;53.176;6.002;2023-09-19T00:23:26;15.30;99.90
54518;DHT22;40423;53.176;6.002;2023-09-19T00:25:53;15.30;99.90
54518;DHT22;40423;53.176;6.002;2023-09-19T00:28:23;15.30;99.90
54518;DHT22;40423;53.176;6.002;2023-09-19T00:30:48;15.30;99.90
54518;DHT22;40423;53.176;6.002;2023-09-19T00:33:18;15.30;99.90
54518;DHT22;40423;53.176;6.002;2023-09-19T00:35:51;15.30;99.90
54518;DHT22;40423;53.176;6.002;2023-09-19T00:38:21;15.20;99.90
54518;DHT22;40423;53.176;6.002;2023-09-19T00:40:49;15.20;99.90
54518;DHT22;40423;53.176;6.002;2023-09-19T00:43:18;15.10;99.90
54518;DHT22;40423;53.176;6.002;2023-09-19T00:45:46;15.10;99.90
54518;DHT22;40423;53.176;6.002;2023-09-19T00:48:14;15.10;99.90
54518;DHT22;40423;53.176;6.002;2023-09-19T00:50:42;15.10;99.90
54518;DHT22;40423;53.176;6.002;2023-09-19T00:53:09;15.00;99.90
54518;DHT22;40423;53.176;6.002;2023-09-19T00:55:40;15.00;99.90
54518;DHT22;40423;53.176;6.002;2023-09-19T00:58:08;14.90;99.90
54518;DHT22;40423;53.176;6.002;2023-09-19T01:00:35;14.90;99.90
54518;DHT22;40423;53.176;6.002;2023-09-19T01:03:01;14.80;99.90
54518;DHT22;40423;53.176;6.002;2023-09-19T01:05:27;14.80;99.90
54518;DHT22;40423;53.176;6.002;2023-09-19T01:07:53;14.80;99.90
54518;DHT22;40423;53.176;6.002;2023-09-19T01:10:20;14.70;99.90
54518;DHT22;40423;53.176;6.002;2023-09-19T01:21:10;14.60;99.90
54518;DHT22;40423;53.176;6.002;2023-09-19T01:29:48;14.60;99.90
54518;DHT22;40423;53.176;6.002;2023-09-19T01:32:19;14.60;99.90
54518;DHT22;40423;53.176;6.002;2023-09-19T01:34:54;14.60;99.90
54518;DHT22;40423;53.176;6.002;2023-09-19T01:37:22;14.60;99.90
54518;DHT22;40423;53.176;6.002;2023-09-19T01:39:56;14.60;99.90
54518;DHT22;40423;53.176;6.002;2023-09-19T01:42:41;14.60;99.90
54518;DHT22;40423;53.176;6.002;2023-09-19T01:45:17;14.60;99.90
54518;DHT22;40423;53.176;6.002;2023-09-19T01:47:55;14.60;99.90
54518;DHT22;40423;53.176;6.002;2023-09-19T01:53:09;14.60;99.90
54518;DHT22;40423;53.176;6.002;2023-09-19T01:55:45;14.60;99.90
54518;DHT22;40423;53.176;6.002;2023-09-19T01:58:24;14.60;99.90
54518;DHT22;40423;53.176;6.002;2023-09-19T02:00:54;14.60;99.90
54518;DHT22;40423;53.176;6.002;2023-09-19T02:03:21;14.60;99.90
54518;DHT22;40423;53.176;6.002;2023-09-19T02:05:50;14.60;99.90
54518;DHT22;40423;53.176;6.002;2023-09-19T02:08:19;14.60;99.90
54518;DHT22;40423;53.176;6.002;2023-09-19T02:10:45;14.60;99.90
54518;DHT22;40423;53.176;6.002;2023-09-19T02:13:19;14.60;99.90
54518;DHT22;40423;53.176;6.002;2023-09-19T02:15:45;14.60;99.90
54518;DHT22;40423;53.176;6.002;2023-09-19T02:18:12;14.60;99.90
54518;DHT22;40423;53.176;6.002;2023-09-19T02:20:39;14.60;99.90
54518;DHT22;40423;53.176;6.002;2023-09-19T02:23:05;14.60;99.90
54518;DHT22;40423;53.176;6.002;2023-09-19T02:26:07;14.70;99.90
54518;DHT22;40423;53.176;6.002;2023-09-19T02:28:33;14.70;99.90
54518;DHT22;40423;53.176;6.002;2023-09-19T02:30:59;14.60;99.90
54518;DHT22;40423;53.176;6.002;2023-09-19T02:33:25;14.60;99.90
54518;DHT22;40423;53.176;6.002;2023-09-19T02:35:58;14.70;99.90
54518;DHT22;40423;53.176;6.002;2023-09-19T02:38:24;14.70;99.90
54518;DHT22;40423;53.176;6.002;2023-09-19T02:40:54;14.70;99.90
54518;DHT22;40423;53.176;6.002;2023-09-19T02:43:21;14.70;99.90
54518;DHT22;40423;53.176;6.002;2023-09-19T02:45:47;14.70;99.90
54518;DHT22;40423;53.176;6.002;2023-09-19T02:48:16;14.70;99.90
54518;DHT22;40423;53.176;6.002;2023-09-19T02:50:42;14.70;99.90
54518;DHT22;40423;53.176;6.002;2023-09-19T02:53:08;14.70;99.90
54518;DHT22;40423;53.176;6.002;2023-09-19T02:55:38;14.70;99.90
54518;DHT22;40423;53.176;6.002;2023-09-19T02:58:06;14.70;99.90
54518;DHT22;40423;53.176;6.002;2023-09-19T03:00:37;14.70;99.90
54518;DHT22;40423;53.176;6.002;2023-09-19T03:03:03;14.70;99.90
54518;DHT22;40423;53.176;6.002;2023-09-19T03:05:30;14.70;99.90
54518;DHT22;40423;53.176;6.002;2023-09-19T03:07:56;14.70;99.90
54518;DHT22;40423;53.176;6.002;2023-09-19T03:10:22;14.70;99.90
54518;DHT22;40423;53.176;6.002;2023-09-19T03:12:50;14.70;99.90
54518;DHT22;40423;53.176;6.002;2023-09-19T03:15:16;14.70;99.90
54518;DHT22;40423;53.176;6.002;2023-09-19T03:17:44;14.70;99.90
54518;DHT22;40423;53.176;6.002;2023-09-19T03:20:11;14.70;99.90
54518;DHT22;40423;53.176;6.002;2023-09-19T03:22:39;14.70;99.90
54518;DHT22;40423;53.176;6.002;2023-09-19T03:25:08;14.60;99.90
54518;DHT22;40423;53.176;6.002;2023-09-19T03:27:34;14.60;99.90
54518;DHT22;40423;53.176;6.002;2023-09-19T03:30:00;14.60;99.90
54518;DHT22;40423;53.176;6.002;2023-09-19T03:32:26;14.60;99.90
54518;DHT22;40423;53.176;6.002;2023-09-19T03:34:52;14.50;99.90
54518;DHT22;40423;53.176;6.002;2023-09-19T03:37:18;14.50;99.90
54518;DHT22;40423;53.176;6.002;2023-09-19T03:39:43;14.50;99.90
54518;DHT22;40423;53.176;6.002;2023-09-19T03:42:09;14.50;99.90
54518;DHT22;40423;53.176;6.002;2023-09-19T03:44:35;14.50;99.90
54518;DHT22;40423;53.176;6.002;2023-09-19T03:47:01;14.40;99.90
54518;DHT22;40423;53.176;6.002;2023-09-19T03:49:26;14.40;99.90
54518;DHT22;40423;53.176;6.002;2023-09-19T03:51:52;14.40;99.90
54518;DHT22;40423;53.176;6.002;2023-09-19T03:54:18;14.50;99.90
54518;DHT22;40423;53.176;6.002;2023-09-19T03:56:44;14.50;99.90
54518;DHT22;40423;53.176;6.002;2023-09-19T03:59:11;14.50;99.90
54518;DHT22;40423;53.176;6.002;2023-09-19T04:01:37;14.40;99.90
54518;DHT22;40423;53.176;6.002;2023-09-19T04:04:03;14.40;99.90
54518;DHT22;40423;53.176;6.002;2023-09-19T04:06:37;14.40;99.90
54518;DHT22;40423;53.176;6.002;2023-09-19T04:09:03;14.40;99.90
54518;DHT22;40423;53.176;6.002;2023-09-19T04:11:32;14.40;99.90
54518;DHT22;40423;53.176;6.002;2023-09-19T04:13:58;14.40;99.90
54518;DHT22;40423;53.176;6.002;2023-09-19T04:16:24;14.40;99.90
54518;DHT22;40423;53.176;6.002;2023-09-19T04:18:50;14.40;99.90
54518;DHT22;40423;53.176;6.002;2023-09-19T04:21:16;14.40;99.90
54518;DHT22;40423;53.176;6.002;2023-09-19T04:23:42;14.40;99.90
54518;DHT22;40423;53.176;6.002;2023-09-19T04:26:08;14.40;99.90
54518;DHT22;40423;53.176;6.002;2023-09-19T04:28:34;14.50;99.90
54518;DHT22;40423;53.176;6.002;2023-09-19T04:31:00;14.50;99.90
54518;DHT22;40423;53.176;6.002;2023-09-19T04:33:26;14.50;99.90
54518;DHT22;40423;53.176;6.002;2023-09-19T04:35:55;14.50;99.90
54518;DHT22;40423;53.176;6.002;2023-09-19T04:38:21;14.50;99.90
54518;DHT22;40423;53.176;6.002;2023-09-19T04:40:47;14.50;99.90
54518;DHT22;40423;53.176;6.002;2023-09-19T04:43:13;14.50;99.90
54518;DHT22;40423;53.176;6.002;2023-09-19T04:45:40;14.50;99.90
54518;DHT22;40423;53.176;6.002;2023-09-19T04:48:06;14.60;99.90
54518;DHT22;40423;53.176;6.002;2023-09-19T04:50:32;14.60;99.90
54518;DHT22;40423;53.176;6.002;2023-09-19T04:53:00;14.60;99.90
54518;DHT22;40423;53.176;6.002;2023-09-19T04:55:26;14.60;99.90
54518;DHT22;40423;53.176;6.002;2023-09-19T04:57:52;14.60;99.90
54518;DHT22;40423;53.176;6.002;2023-09-19T05:00:19;14.60;99.90
54518;DHT22;40423;53.176;6.002;2023-09-19T05:02:54;14.60;99.90
54518;DHT22;40423;53.176;6.002;2023-09-19T05:05:20;14.60;99.90
54518;DHT22;40423;53.176;6.002;2023-09-19T05:07:47;14.60;99.90
54518;DHT22;40423;53.176;6.002;2023-09-19T05:10:14;14.60;99.90
54518;DHT22;40423;53.176;6.002;2023-09-19T05:12:42;14.70;99.90
54518;DHT22;40423;53.176;6.002;2023-09-19T05:15:11;14.70;99.90
54518;DHT22;40423;53.176;6.002;2023-09-19T05:17:37;14.70;99.90
54518;DHT22;40423;53.176;6.002;2023-09-19T05:20:04;14.70;99.90
54518;DHT22;40423;53.176;6.002;2023-09-19T05:22:44;14.70;99.90
54518;DHT22;40423;53.176;6.002;2023-09-19T05:25:11;14.70;99.90
54518;DHT22;40423;53.176;6.002;2023-09-19T05:27:42;14.70;99.90
54518;DHT22;40423;53.176;6.002;2023-09-19T05:30:08;14.70;99.90
54518;DHT22;40423;53.176;6.002;2023-09-19T05:32:34;14.80;99.90
54518;DHT22;40423;53.176;6.002;2023-09-19T05:35:00;14.80;99.90
54518;DHT22;40423;53.176;6.002;2023-09-19T05:37:25;14.80;99.90
54518;DHT22;40423;53.176;6.002;2023-09-19T05:39:52;14.80;99.90
54518;DHT22;40423;53.176;6.002;2023-09-19T05:42:19;14.80;99.90
54518;DHT22;40423;53.176;6.002;2023-09-19T05:44:45;14.80;99.90
54518;DHT22;40423;53.176;6.002;2023-09-19T05:47:10;14.90;99.90
54518;DHT22;40423;53.176;6.002;2023-09-19T05:49:36;14.80;99.90
54518;DHT22;40423;53.176;6.002;2023-09-19T05:52:05;14.90;99.90
54518;DHT22;40423;53.176;6.002;2023-09-19T05:54:32;14.90;99.90
54518;DHT22;40423;53.176;6.002;2023-09-19T05:57:00;14.90;99.90
54518;DHT22;40423;53.176;6.002;2023-09-19T05:59:27;14.90;99.90
54518;DHT22;40423;53.176;6.002;2023-09-19T06:01:53;14.90;99.90
54518;DHT22;40423;53.176;6.002;2023-09-19T06:04:18;15.00;99.90
54518;DHT22;40423;53.176;6.002;2023-09-19T06:06:45;15.00;99.90
54518;DHT22;40423;53.176;6.002;2023-09-19T06:09:10;15.00;99.90
54518;DHT22;40423;53.176;6.002;2023-09-19T06:11:36;15.00;99.90
54518;DHT22;40423;53.176;6.002;2023-09-19T06:14:03;15.10;99.90
54518;DHT22;40423;53.176;6.002;2023-09-19T06:16:29;15.10;99.90
54518;DHT22;40423;53.176;6.002;2023-09-19T06:18:57;15.10;99.90
54518;DHT22;40423;53.176;6.002;2023-09-19T06:21:26;15.10;99.90
54518;DHT22;40423;53.176;6.002;2023-09-19T06:23:55;15.10;99.90
54518;DHT22;40423;53.176;6.002;2023-09-19T06:26:23;15.10;99.90
54518;DHT22;40423;53.176;6.002;2023-09-19T06:28:49;15.10;99.90
54518;DHT22;40423;53.176;6.002;2023-09-19T06:31:14;15.10;99.90
54518;DHT22;40423;53.176;6.002;2023-09-19T06:33:40;15.20;99.90
54518;DHT22;40423;53.176;6.002;2023-09-19T06:36:08;15.20;99.90
54518;DHT22;40423;53.176;6.002;2023-09-19T06:38:34;15.30;99.90
54518;DHT22;40423;53.176;6.002;2023-09-19T06:41:02;15.30;99.90
54518;DHT22;40423;53.176;6.002;2023-09-19T06:43:31;15.30;99.90
54518;DHT22;40423;53.176;6.002;2023-09-19T06:45:57;15.40;99.90
54518;DHT22;40423;53.176;6.002;2023-09-19T06:48:23;15.40;99.90
54518;DHT22;40423;53.176;6.002;2023-09-19T06:50:50;15.40;99.90
54518;DHT22;40423;53.176;6.002;2023-09-19T06:53:18;15.50;99.90
54518;DHT22;40423;53.176;6.002;2023-09-19T06:55:44;15.50;99.90
54518;DHT22;40423;53.176;6.002;2023-09-19T06:58:11;15.50;99.90
54518;DHT22;40423;53.176;6.002;2023-09-19T07:00:37;15.60;99.90
54518;DHT22;40423;53.176;6.002;2023-09-19T07:03:06;15.60;99.90
54518;DHT22;40423;53.176;6.002;2023-09-19T07:05:37;15.70;99.90
54518;DHT22;40423;53.176;6.002;2023-09-19T07:08:06;15.70;99.90
54518;DHT22;40423;53.176;6.002;2023-09-19T07:10:32;15.80;99.90
54518;DHT22;40423;53.176;6.002;2023-09-19T07:13:03;15.80;99.90
54518;DHT22;40423;53.176;6.002;2023-09-19T07:15:31;15.90;99.90
54518;DHT22;40423;53.176;6.002;2023-09-19T07:17:58;15.90;99.90
54518;DHT22;40423;53.176;6.002;2023-09-19T07:20:25;15.90;99.90
54518;DHT22;40423;53.176;6.002;2023-09-19T07:22:52;15.90;99.90
54518;DHT22;40423;53.176;6.002;2023-09-19T07:25:20;15.90;99.90
54518;DHT22;40423;53.176;6.002;2023-09-19T07:27:46;16.00;99.90
54518;DHT22;40423;53.176;6.002;2023-09-19T07:30:12;16.10;99.90
54518;DHT22;40423;53.176;6.002;2023-09-19T07:32:38;16.10;99.90
54518;DHT22;40423;53.176;6.002;2023-09-19T07:35:06;16.20;99.90
54518;DHT22;40423;53.176;6.002;2023-09-19T07:37:32;16.30;99.90
54518;DHT22;40423;53.176;6.002;2023-09-19T07:40:07;16.40;99.90
54518;DHT22;40423;53.176;6.002;2023-09-19T07:42:37;16.50;99.90
54518;DHT22;40423;53.176;6.002;2023-09-19T07:45:07;16.60;99.90
54518;DHT22;40423;53.176;6.002;2023-09-19T07:47:33;16.70;99.90
54518;DHT22;40423;53.176;6.002;2023-09-19T07:50:00;16.80;99.90
54518;DHT22;40423;53.176;6.002;2023-09-19T07:52:32;17.00;99.90
54518;DHT22;40423;53.176;6.002;2023-09-19T07:54:59;17.10;99.90
54518;DHT22;40423;53.176;6.002;2023-09-19T07:57:27;17.10;99.90
54518;DHT22;40423;53.176;6.002;2023-09-19T07:59:54;17.00;99.90
54518;DHT22;40423;53.176;6.002;2023-09-19T08:02:20;17.00;99.90
54518;DHT22;40423;53.176;6.002;2023-09-19T08:04:45;17.00;99.90
54518;DHT22;40423;53.176;6.002;2023-09-19T08:07:12;16.90;99.90
54518;DHT22;40423;53.176;6.002;2023-09-19T08:09:38;16.80;99.90
54518;DHT22;40423;53.176;6.002;2023-09-19T08:12:07;16.80;99.90
54518;DHT22;40423;53.176;6.002;2023-09-19T08:14:36;16.80;99.90
54518;DHT22;40423;53.176;6.002;2023-09-19T08:17:03;16.80;99.90
54518;DHT22;40423;53.176;6.002;2023-09-19T08:19:31;16.70;99.90
54518;DHT22;40423;53.176;6.002;2023-09-19T08:21:58;16.90;99.90
54518;DHT22;40423;53.176;6.002;2023-09-19T08:24:27;16.90;99.90
54518;DHT22;40423;53.176;6.002;2023-09-19T08:26:57;17.00;99.90
54518;DHT22;40423;53.176;6.002;2023-09-19T08:29:24;17.10;99.90
54518;DHT22;40423;53.176;6.002;2023-09-19T08:31:56;17.20;99.90
54518;DHT22;40423;53.176;6.002;2023-09-19T08:34:23;17.20;99.90
54518;DHT22;40423;53.176;6.002;2023-09-19T08:36:53;17.20;99.90
54518;DHT22;40423;53.176;6.002;2023-09-19T08:39:23;17.20;99.90
54518;DHT22;40423;53.176;6.002;2023-09-19T08:41:49;17.20;99.90
54518;DHT22;40423;53.176;6.002;2023-09-19T08:44:16;17.30;99.90
54518;DHT22;40423;53.176;6.002;2023-09-19T08:46:43;17.40;99.90
54518;DHT22;40423;53.176;6.002;2023-09-19T08:49:33;17.50;99.90
54518;DHT22;40423;53.176;6.002;2023-09-19T08:52:16;17.60;99.90
54518;DHT22;40423;53.176;6.002;2023-09-19T08:54:47;17.70;99.90
54518;DHT22;40423;53.176;6.002;2023-09-19T08:57:16;17.90;99.90
54518;DHT22;40423;53.176;6.002;2023-09-19T08:59:50;18.00;99.90
54518;DHT22;40423;53.176;6.002;2023-09-19T09:02:17;17.90;99.90
54518;DHT22;40423;53.176;6.002;2023-09-19T09:04:45;17.90;99.90
54518;DHT22;40423;53.176;6.002;2023-09-19T09:07:12;17.90;99.90
54518;DHT22;40423;53.176;6.002;2023-09-19T09:09:42;18.00;99.90
54518;DHT22;40423;53.176;6.002;2023-09-19T09:12:13;18.10;99.90
54518;DHT22;40423;53.176;6.002;2023-09-19T09:14:48;18.20;99.90
54518;DHT22;40423;53.176;6.002;2023-09-19T09:17:16;18.30;99.90
54518;DHT22;40423;53.176;6.002;2023-09-19T09:19:46;18.40;99.90
54518;DHT22;40423;53.176;6.002;2023-09-19T09:22:13;18.40;99.90
54518;DHT22;40423;53.176;6.002;2023-09-19T09:24:54;18.50;99.90
54518;DHT22;40423;53.176;6.002;2023-09-19T09:27:22;18.50;99.90
54518;DHT22;40423;53.176;6.002;2023-09-19T09:29:50;18.40;99.90
54518;DHT22;40423;53.176;6.002;2023-09-19T09:32:36;18.30;99.90
54518;DHT22;40423;53.176;6.002;2023-09-19T09:35:07;18.40;99.90
54518;DHT22;40423;53.176;6.002;2023-09-19T09:37:36;18.40;99.90
54518;DHT22;40423;53.176;6.002;2023-09-19T09:40:04;18.40;99.90
54518;DHT22;40423;53.176;6.002;2023-09-19T09:42:39;18.40;99.90
54518;DHT22;40423;53.176;6.002;2023-09-19T09:47:46;18.40;99.90
54518;DHT22;40423;53.176;6.002;2023-09-19T09:50:29;18.40;99.90
54518;DHT22;40423;53.176;6.002;2023-09-19T09:53:04;18.50;99.90
54518;DHT22;40423;53.176;6.002;2023-09-19T09:58:23;18.40;99.90
54518;DHT22;40423;53.176;6.002;2023-09-19T10:00:55;18.40;99.90
54518;DHT22;40423;53.176;6.002;2023-09-19T10:03:37;18.40;99.90
54518;DHT22;40423;53.176;6.002;2023-09-19T10:06:06;18.40;99.90
54518;DHT22;40423;53.176;6.002;2023-09-19T10:09:07;18.40;99.90
54518;DHT22;40423;53.176;6.002;2023-09-19T10:11:46;18.20;99.90
54518;DHT22;40423;53.176;6.002;2023-09-19T10:14:16;18.20;99.90
54518;DHT22;40423;53.176;6.002;2023-09-19T10:16:46;18.20;99.90
54518;DHT22;40423;53.176;6.002;2023-09-19T10:19:20;18.20;99.90
54518;DHT22;40423;53.176;6.002;2023-09-19T10:21:50;18.30;99.90
54518;DHT22;40423;53.176;6.002;2023-09-19T10:24:17;18.40;99.90
54518;DHT22;40423;53.176;6.002;2023-09-19T10:26:44;18.40;99.90
54518;DHT22;40423;53.176;6.002;2023-09-19T10:29:13;18.50;99.90
54518;DHT22;40423;53.176;6.002;2023-09-19T10:31:42;18.60;99.90
54518;DHT22;40423;53.176;6.002;2023-09-19T10:34:14;18.50;99.90
54518;DHT22;40423;53.176;6.002;2023-09-19T10:36:44;18.50;99.90
54518;DHT22;40423;53.176;6.002;2023-09-19T10:39:11;18.50;99.90
54518;DHT22;40423;53.176;6.002;2023-09-19T10:41:39;18.60;99.90
54518;DHT22;40423;53.176;6.002;2023-09-19T10:44:05;18.60;99.90
54518;DHT22;40423;53.176;6.002;2023-09-19T10:46:34;18.70;99.90
54518;DHT22;40423;53.176;6.002;2023-09-19T10:49:02;18.60;99.90
54518;DHT22;40423;53.176;6.002;2023-09-19T10:51:39;18.50;99.90
54518;DHT22;40423;53.176;6.002;2023-09-19T10:54:13;18.30;99.90
54518;DHT22;40423;53.176;6.002;2023-09-19T10:56:51;18.20;99.90
54518;DHT22;40423;53.176;6.002;2023-09-19T10:59:21;18.10;99.90
54518;DHT22;40423;53.176;6.002;2023-09-19T11:01:49;18.00;99.90
54518;DHT22;40423;53.176;6.002;2023-09-19T11:04:29;18.00;99.90
54518;DHT22;40423;53.176;6.002;2023-09-19T11:07:12;18.00;99.90
54518;DHT22;40423;53.176;6.002;2023-09-19T11:09:55;18.00;99.90
54518;DHT22;40423;53.176;6.002;2023-09-19T11:27:11;18.00;99.90
54518;DHT22;40423;53.176;6.002;2023-09-19T11:29:39;18.00;99.90
54518;DHT22;40423;53.176;6.002;2023-09-19T11:32:06;18.10;99.90
54518;DHT22;40423;53.176;6.002;2023-09-19T11:34:45;18.20;99.90
54518;DHT22;40423;53.176;6.002;2023-09-19T11:40:10;18.20;99.90
54518;DHT22;40423;53.176;6.002;2023-09-19T11:42:46;18.20;99.90
54518;DHT22;40423;53.176;6.002;2023-09-19T11:48:16;18.00;99.90
54518;DHT22;40423;53.176;6.002;2023-09-19T11:50:45;18.00;99.90
54518;DHT22;40423;53.176;6.002;2023-09-19T11:53:13;17.90;99.90
54518;DHT22;40423;53.176;6.002;2023-09-19T11:55:40;17.80;99.90
54518;DHT22;40423;53.176;6.002;2023-09-19T11:58:07;17.80;99.90
54518;DHT22;40423;53.176;6.002;2023-09-19T12:00:35;17.80;99.90
54518;DHT22;40423;53.176;6.002;2023-09-19T12:03:09;17.60;99.90
54518;DHT22;40423;53.176;6.002;2023-09-19T12:05:36;17.50;99.90
54518;DHT22;40423;53.176;6.002;2023-09-19T12:08:04;17.30;99.90
54518;DHT22;40423;53.176;6.002;2023-09-19T12:10:33;17.30;99.90
54518;DHT22;40423;53.176;6.002;2023-09-19T12:13:02;17.20;99.90
54518;DHT22;40423;53.176;6.002;2023-09-19T12:15:28;17.10;99.90
54518;DHT22;40423;53.176;6.002;2023-09-19T12:18:00;17.10;99.90
54518;DHT22;40423;53.176;6.002;2023-09-19T12:20:44;17.30;99.90
54518;DHT22;40423;53.176;6.002;2023-09-19T12:23:15;17.40;99.90
54518;DHT22;40423;53.176;6.002;2023-09-19T12:25:42;17.40;99.90
54518;DHT22;40423;53.176;6.002;2023-09-19T12:28:12;17.50;99.90
54518;DHT22;40423;53.176;6.002;2023-09-19T12:30:38;17.60;99.90
54518;DHT22;40423;53.176;6.002;2023-09-19T12:33:18;17.60;99.90
54518;DHT22;40423;53.176;6.002;2023-09-19T12:35:54;17.70;99.90
54518;DHT22;40423;53.176;6.002;2023-09-19T12:38:27;17.70;99.90
54518;DHT22;40423;53.176;6.002;2023-09-19T12:41:01;17.70;99.90
54518;DHT22;40423;53.176;6.002;2023-09-19T12:43:31;17.80;99.90
54518;DHT22;40423;53.176;6.002;2023-09-19T12:46:01;17.80;99.90
54518;DHT22;40423;53.176;6.002;2023-09-19T12:48:28;17.70;99.90
54518;DHT22;40423;53.176;6.002;2023-09-19T12:51:10;17.70;99.90
54518;DHT22;40423;53.176;6.002;2023-09-19T12:53:42;17.70;99.90
54518;DHT22;40423;53.176;6.002;2023-09-19T12:56:13;17.70;99.90
54518;DHT22;40423;53.176;6.002;2023-09-19T12:58:56;17.60;99.90
54518;DHT22;40423;53.176;6.002;2023-09-19T13:01:26;17.60;99.90
54518;DHT22;40423;53.176;6.002;2023-09-19T13:04:12;17.60;99.90
54518;DHT22;40423;53.176;6.002;2023-09-19T13:06:38;17.50;99.90
54518;DHT22;40423;53.176;6.002;2023-09-19T13:09:10;17.60;99.90
54518;DHT22;40423;53.176;6.002;2023-09-19T13:11:42;17.70;99.90
54518;DHT22;40423;53.176;6.002;2023-09-19T13:14:22;17.60;99.90
54518;DHT22;40423;53.176;6.002;2023-09-19T13:19:41;17.50;99.90
54518;DHT22;40423;53.176;6.002;2023-09-19T13:22:44;17.50;99.90
54518;DHT22;40423;53.176;6.002;2023-09-19T13:25:18;17.50;99.90
54518;DHT22;40423;53.176;6.002;2023-09-19T13:27:48;17.50;99.90
54518;DHT22;40423;53.176;6.002;2023-09-19T13:30:20;17.50;99.90
54518;DHT22;40423;53.176;6.002;2023-09-19T13:32:46;17.60;99.90
54518;DHT22;40423;53.176;6.002;2023-09-19T13:35:13;17.60;99.90
54518;DHT22;40423;53.176;6.002;2023-09-19T13:37:40;17.70;99.90
54518;DHT22;40423;53.176;6.002;2023-09-19T13:40:14;17.70;99.90
54518;DHT22;40423;53.176;6.002;2023-09-19T13:42:41;17.80;99.90
54518;DHT22;40423;53.176;6.002;2023-09-19T13:45:07;17.90;99.90
54518;DHT22;40423;53.176;6.002;2023-09-19T13:47:37;18.00;99.90
54518;DHT22;40423;53.176;6.002;2023-09-19T13:50:04;18.00;99.90
54518;DHT22;40423;53.176;6.002;2023-09-19T13:52:33;18.00;99.90
54518;DHT22;40423;53.176;6.002;2023-09-19T13:55:00;18.00;99.90
54518;DHT22;40423;53.176;6.002;2023-09-19T13:57:26;18.00;99.90
54518;DHT22;40423;53.176;6.002;2023-09-19T13:59:53;18.10;99.90
54518;DHT22;40423;53.176;6.002;2023-09-19T14:02:22;18.10;99.90
54518;DHT22;40423;53.176;6.002;2023-09-19T14:04:52;18.10;99.90
54518;DHT22;40423;53.176;6.002;2023-09-19T14:07:21;18.10;99.90
54518;DHT22;40423;53.176;6.002;2023-09-19T14:09:47;18.00;99.90
54518;DHT22;40423;53.176;6.002;2023-09-19T14:12:13;17.90;99.90
54518;DHT22;40423;53.176;6.002;2023-09-19T14:14:39;17.90;99.90
54518;DHT22;40423;53.176;6.002;2023-09-19T14:17:08;17.80;99.90
54518;DHT22;40423;53.176;6.002;2023-09-19T14:19:34;17.80;99.90
54518;DHT22;40423;53.176;6.002;2023-09-19T14:22:02;17.70;99.90
54518;DHT22;40423;53.176;6.002;2023-09-19T14:24:33;17.70;99.90
54518;DHT22;40423;53.176;6.002;2023-09-19T14:26:59;17.70;99.90
54518;DHT22;40423;53.176;6.002;2023-09-19T14:29:25;17.70;99.90
54518;DHT22;40423;53.176;6.002;2023-09-19T14:31:51;17.70;99.90
54518;DHT22;40423;53.176;6.002;2023-09-19T14:34:17;17.70;99.90
54518;DHT22;40423;53.176;6.002;2023-09-19T14:36:43;17.70;99.90
54518;DHT22;40423;53.176;6.002;2023-09-19T14:39:09;17.80;99.90
54518;DHT22;40423;53.176;6.002;2023-09-19T14:41:34;17.80;99.90
54518;DHT22;40423;53.176;6.002;2023-09-19T14:44:02;17.80;99.90
54518;DHT22;40423;53.176;6.002;2023-09-19T14:46:31;17.90;99.90
54518;DHT22;40423;53.176;6.002;2023-09-19T14:48:57;17.90;99.90
54518;DHT22;40423;53.176;6.002;2023-09-19T14:51:29;17.90;99.90
54518;DHT22;40423;53.176;6.002;2023-09-19T14:53:55;18.00;99.90
54518;DHT22;40423;53.176;6.002;2023-09-19T14:56:21;17.90;99.90
54518;DHT22;40423;53.176;6.002;2023-09-19T14:58:49;17.90;99.90
54518;DHT22;40423;53.176;6.002;2023-09-19T15:01:15;17.90;99.90
54518;DHT22;40423;53.176;6.002;2023-09-19T15:03:42;18.00;99.90
54518;DHT22;40423;53.176;6.002;2023-09-19T15:06:11;18.00;99.90
54518;DHT22;40423;53.176;6.002;2023-09-19T15:08:41;18.00;99.90
54518;DHT22;40423;53.176;6.002;2023-09-19T15:11:13;18.10;99.90
54518;DHT22;40423;53.176;6.002;2023-09-19T15:13:41;18.10;99.90
54518;DHT22;40423;53.176;6.002;2023-09-19T15:16:08;18.10;99.90
54518;DHT22;40423;53.176;6.002;2023-09-19T15:18:39;18.00;99.90
54518;DHT22;40423;53.176;6.002;2023-09-19T15:21:05;18.00;99.90
54518;DHT22;40423;53.176;6.002;2023-09-19T15:23:32;17.90;99.90
54518;DHT22;40423;53.176;6.002;2023-09-19T15:26:03;17.90;99.90
54518;DHT22;40423;53.176;6.002;2023-09-19T15:28:42;17.80;99.90
54518;DHT22;40423;53.176;6.002;2023-09-19T15:31:10;17.80;99.90
54518;DHT22;40423;53.176;6.002;2023-09-19T15:33:36;17.80;99.90
54518;DHT22;40423;53.176;6.002;2023-09-19T15:36:04;17.80;99.90
54518;DHT22;40423;53.176;6.002;2023-09-19T15:38:31;17.80;99.90
54518;DHT22;40423;53.176;6.002;2023-09-19T15:40:58;17.80;99.90
54518;DHT22;40423;53.176;6.002;2023-09-19T15:43:24;17.70;99.90
54518;DHT22;40423;53.176;6.002;2023-09-19T15:45:50;17.70;99.90
54518;DHT22;40423;53.176;6.002;2023-09-19T15:48:16;17.70;99.90
54518;DHT22;40423;53.176;6.002;2023-09-19T15:50:45;17.60;99.90
54518;DHT22;40423;53.176;6.002;2023-09-19T15:53:19;17.60;99.90
54518;DHT22;40423;53.176;6.002;2023-09-19T15:55:45;17.50;99.90
54518;DHT22;40423;53.176;6.002;2023-09-19T15:58:12;17.50;99.90
54518;DHT22;40423;53.176;6.002;2023-09-19T16:00:40;17.50;99.90
54518;DHT22;40423;53.176;6.002;2023-09-19T16:03:06;17.40;99.90
54518;DHT22;40423;53.176;6.002;2023-09-19T16:05:36;17.40;99.90
54518;DHT22;40423;53.176;6.002;2023-09-19T16:08:08;17.30;99.90
54518;DHT22;40423;53.176;6.002;2023-09-19T16:10:35;17.20;99.90
54518;DHT22;40423;53.176;6.002;2023-09-19T16:13:02;17.20;99.90
54518;DHT22;40423;53.176;6.002;2023-09-19T16:15:29;17.20;99.90
54518;DHT22;40423;53.176;6.002;2023-09-19T16:17:55;17.20;99.90
54518;DHT22;40423;53.176;6.002;2023-09-19T16:20:21;17.10;99.90
54518;DHT22;40423;53.176;6.002;2023-09-19T16:22:48;17.00;99.90
54518;DHT22;40423;53.176;6.002;2023-09-19T16:25:14;17.00;99.90
54518;DHT22;40423;53.176;6.002;2023-09-19T16:27:40;17.00;99.90